sensor_id;sensor_type;location;lat;lon;timestamp;P1;durP1;ratioP1;P2;durP2;ratioP2
43662;SDS011;74813;56.104;40.358;2023-12-28T00:00:59;7.28;;;2.80;;
43662;SDS011;74813;56.104;40.358;2023-12-28T00:03:32;8.52;;;3.28;;
43662;SDS011;74813;56.104;40.358;2023-12-28T00:06:04;6.13;;;2.15;;
43662;SDS011;74813;56.104;40.358;2023-12-28T00:08:36;6.60;;;2.22;;
43662;SDS011;74813;56.104;40.358;2023-12-28T00:11:09;7.57;;;2.80;;
43662;SDS011;74813;56.104;40.358;2023-12-28T00:13:41;12.18;;;2.67;;
43662;SDS011;74813;56.104;40.358;2023-12-28T00:16:13;6.95;;;2.20;;
43662;SDS011;74813;56.104;40.358;2023-12-28T00:18:46;6.95;;;2.17;;
43662;SDS011;74813;56.104;40.358;2023-12-28T00:21:18;5.55;;;1.80;;
43662;SDS011;74813;56.104;40.358;2023-12-28T00:23:50;8.13;;;2.03;;
43662;SDS011;74813;56.104;40.358;2023-12-28T00:26:22;5.28;;;1.65;;
43662;SDS011;74813;56.104;40.358;2023-12-28T00:28:55;6.78;;;2.58;;
43662;SDS011;74813;56.104;40.358;2023-12-28T00:31:27;6.82;;;2.33;;
43662;SDS011;74813;56.104;40.358;2023-12-28T00:33:59;6.18;;;2.15;;
43662;SDS011;74813;56.104;40.358;2023-12-28T00:36:32;4.40;;;1.35;;
43662;SDS011;74813;56.104;40.358;2023-12-28T00:39:04;5.35;;;1.60;;
43662;SDS011;74813;56.104;40.358;2023-12-28T00:41:36;4.90;;;1.60;;
43662;SDS011;74813;56.104;40.358;2023-12-28T00:44:08;5.80;;;1.58;;
43662;SDS011;74813;56.104;40.358;2023-12-28T00:46:41;6.65;;;2.53;;
43662;SDS011;74813;56.104;40.358;2023-12-28T00:49:13;4.07;;;1.30;;
43662;SDS011;74813;56.104;40.358;2023-12-28T00:51:46;6.47;;;1.75;;
43662;SDS011;74813;56.104;40.358;2023-12-28T00:54:18;4.68;;;1.33;;
43662;SDS011;74813;56.104;40.358;2023-12-28T00:56:51;5.25;;;1.75;;
43662;SDS011;74813;56.104;40.358;2023-12-28T00:59:23;5.13;;;1.27;;
43662;SDS011;74813;56.104;40.358;2023-12-28T01:01:55;3.95;;;1.23;;
43662;SDS011;74813;56.104;40.358;2023-12-28T01:04:28;4.60;;;1.48;;
43662;SDS011;74813;56.104;40.358;2023-12-28T01:07:00;5.80;;;1.60;;
43662;SDS011;74813;56.104;40.358;2023-12-28T01:09:32;7.32;;;1.67;;
43662;SDS011;74813;56.104;40.358;2023-12-28T01:12:05;4.97;;;1.40;;
43662;SDS011;74813;56.104;40.358;2023-12-28T01:14:37;4.95;;;1.73;;
43662;SDS011;74813;56.104;40.358;2023-12-28T01:17:09;7.30;;;2.42;;
43662;SDS011;74813;56.104;40.358;2023-12-28T01:19:42;6.88;;;2.05;;
43662;SDS011;74813;56.104;40.358;2023-12-28T01:22:14;5.63;;;1.70;;
43662;SDS011;74813;56.104;40.358;2023-12-28T01:24:46;4.85;;;1.58;;
43662;SDS011;74813;56.104;40.358;2023-12-28T01:27:19;5.60;;;2.00;;
43662;SDS011;74813;56.104;40.358;2023-12-28T01:29:51;6.13;;;2.05;;
43662;SDS011;74813;56.104;40.358;2023-12-28T01:32:23;7.80;;;2.35;;
43662;SDS011;74813;56.104;40.358;2023-12-28T01:34:56;7.03;;;2.75;;
43662;SDS011;74813;56.104;40.358;2023-12-28T01:37:28;5.63;;;1.77;;
43662;SDS011;74813;56.104;40.358;2023-12-28T01:40:00;6.97;;;1.95;;
43662;SDS011;74813;56.104;40.358;2023-12-28T01:42:33;5.63;;;1.95;;
43662;SDS011;74813;56.104;40.358;2023-12-28T01:45:05;5.00;;;1.95;;
43662;SDS011;74813;56.104;40.358;2023-12-28T01:47:38;5.90;;;2.20;;
43662;SDS011;74813;56.104;40.358;2023-12-28T01:50:10;5.53;;;1.63;;
43662;SDS011;74813;56.104;40.358;2023-12-28T01:52:43;6.80;;;2.35;;
43662;SDS011;74813;56.104;40.358;2023-12-28T01:55:15;9.00;;;2.67;;
43662;SDS011;74813;56.104;40.358;2023-12-28T01:57:48;7.88;;;2.75;;
43662;SDS011;74813;56.104;40.358;2023-12-28T02:00:21;6.25;;;2.38;;
43662;SDS011;74813;56.104;40.358;2023-12-28T02:02:54;5.65;;;2.33;;
43662;SDS011;74813;56.104;40.358;2023-12-28T02:05:27;5.97;;;2.00;;
43662;SDS011;74813;56.104;40.358;2023-12-28T02:07:59;6.70;;;2.38;;
43662;SDS011;74813;56.104;40.358;2023-12-28T02:10:32;6.55;;;2.53;;
43662;SDS011;74813;56.104;40.358;2023-12-28T02:13:04;6.45;;;1.98;;
43662;SDS011;74813;56.104;40.358;2023-12-28T02:15:37;6.03;;;1.92;;
43662;SDS011;74813;56.104;40.358;2023-12-28T02:18:12;7.15;;;2.78;;
43662;SDS011;74813;56.104;40.358;2023-12-28T02:20:51;5.88;;;2.17;;
43662;SDS011;74813;56.104;40.358;2023-12-28T02:23:25;8.52;;;3.25;;
43662;SDS011;74813;56.104;40.358;2023-12-28T02:25:57;5.97;;;1.88;;
43662;SDS011;74813;56.104;40.358;2023-12-28T02:28:29;7.15;;;2.65;;
43662;SDS011;74813;56.104;40.358;2023-12-28T02:31:02;7.65;;;2.80;;
43662;SDS011;74813;56.104;40.358;2023-12-28T02:33:43;8.77;;;2.95;;
43662;SDS011;74813;56.104;40.358;2023-12-28T02:36:22;6.93;;;2.30;;
43662;SDS011;74813;56.104;40.358;2023-12-28T02:38:58;7.13;;;2.38;;
43662;SDS011;74813;56.104;40.358;2023-12-28T02:41:31;6.03;;;2.03;;
43662;SDS011;74813;56.104;40.358;2023-12-28T02:44:05;5.78;;;2.00;;
43662;SDS011;74813;56.104;40.358;2023-12-28T02:46:37;7.22;;;2.50;;
43662;SDS011;74813;56.104;40.358;2023-12-28T02:49:10;6.90;;;2.70;;
43662;SDS011;74813;56.104;40.358;2023-12-28T02:51:42;7.50;;;2.40;;
43662;SDS011;74813;56.104;40.358;2023-12-28T02:54:14;6.68;;;2.25;;
43662;SDS011;74813;56.104;40.358;2023-12-28T02:56:47;6.68;;;2.25;;
43662;SDS011;74813;56.104;40.358;2023-12-28T02:59:19;7.22;;;2.80;;
43662;SDS011;74813;56.104;40.358;2023-12-28T03:01:51;9.18;;;3.03;;
43662;SDS011;74813;56.104;40.358;2023-12-28T03:04:23;5.85;;;2.55;;
43662;SDS011;74813;56.104;40.358;2023-12-28T03:06:56;8.70;;;3.33;;
43662;SDS011;74813;56.104;40.358;2023-12-28T03:09:28;8.10;;;3.13;;
43662;SDS011;74813;56.104;40.358;2023-12-28T03:12:00;7.47;;;2.72;;
43662;SDS011;74813;56.104;40.358;2023-12-28T03:14:33;9.07;;;3.53;;
43662;SDS011;74813;56.104;40.358;2023-12-28T03:17:05;7.95;;;3.00;;
43662;SDS011;74813;56.104;40.358;2023-12-28T03:19:37;8.55;;;3.03;;
43662;SDS011;74813;56.104;40.358;2023-12-28T03:22:10;12.55;;;4.57;;
43662;SDS011;74813;56.104;40.358;2023-12-28T03:24:42;9.20;;;3.33;;
43662;SDS011;74813;56.104;40.358;2023-12-28T03:27:15;9.55;;;3.88;;
43662;SDS011;74813;56.104;40.358;2023-12-28T03:29:47;8.30;;;3.03;;
43662;SDS011;74813;56.104;40.358;2023-12-28T03:32:19;9.27;;;3.33;;
43662;SDS011;74813;56.104;40.358;2023-12-28T03:34:51;8.52;;;3.15;;
43662;SDS011;74813;56.104;40.358;2023-12-28T03:37:24;8.27;;;2.90;;
43662;SDS011;74813;56.104;40.358;2023-12-28T03:39:56;10.77;;;4.13;;
43662;SDS011;74813;56.104;40.358;2023-12-28T03:42:28;9.50;;;2.90;;
43662;SDS011;74813;56.104;40.358;2023-12-28T03:45:01;9.23;;;3.47;;
43662;SDS011;74813;56.104;40.358;2023-12-28T03:47:33;8.00;;;2.90;;
43662;SDS011;74813;56.104;40.358;2023-12-28T03:50:05;6.30;;;2.75;;
43662;SDS011;74813;56.104;40.358;2023-12-28T03:52:38;7.32;;;2.85;;
43662;SDS011;74813;56.104;40.358;2023-12-28T03:55:10;12.55;;;5.30;;
43662;SDS011;74813;56.104;40.358;2023-12-28T03:57:43;8.57;;;3.30;;
43662;SDS011;74813;56.104;40.358;2023-12-28T04:00:15;8.20;;;2.95;;
43662;SDS011;74813;56.104;40.358;2023-12-28T04:02:47;8.48;;;2.72;;
43662;SDS011;74813;56.104;40.358;2023-12-28T04:05:20;8.18;;;3.15;;
43662;SDS011;74813;56.104;40.358;2023-12-28T04:07:53;7.95;;;3.20;;
43662;SDS011;74813;56.104;40.358;2023-12-28T04:10:29;10.98;;;3.58;;
43662;SDS011;74813;56.104;40.358;2023-12-28T04:13:03;8.93;;;3.88;;
43662;SDS011;74813;56.104;40.358;2023-12-28T04:15:35;8.73;;;2.60;;
43662;SDS011;74813;56.104;40.358;2023-12-28T04:18:08;7.45;;;2.80;;
43662;SDS011;74813;56.104;40.358;2023-12-28T04:20:42;7.45;;;2.70;;
43662;SDS011;74813;56.104;40.358;2023-12-28T04:23:15;8.43;;;3.92;;
43662;SDS011;74813;56.104;40.358;2023-12-28T04:25:47;7.82;;;2.80;;
43662;SDS011;74813;56.104;40.358;2023-12-28T04:28:19;8.05;;;3.25;;
43662;SDS011;74813;56.104;40.358;2023-12-28T04:30:52;7.75;;;2.97;;
43662;SDS011;74813;56.104;40.358;2023-12-28T04:33:24;8.00;;;3.25;;
43662;SDS011;74813;56.104;40.358;2023-12-28T04:35:56;7.15;;;2.60;;
43662;SDS011;74813;56.104;40.358;2023-12-28T04:38:29;8.38;;;3.30;;
43662;SDS011;74813;56.104;40.358;2023-12-28T04:41:02;10.88;;;3.75;;
43662;SDS011;74813;56.104;40.358;2023-12-28T04:43:34;7.65;;;2.63;;
43662;SDS011;74813;56.104;40.358;2023-12-28T04:46:06;8.30;;;3.22;;
43662;SDS011;74813;56.104;40.358;2023-12-28T04:48:39;12.75;;;4.63;;
43662;SDS011;74813;56.104;40.358;2023-12-28T04:51:11;9.15;;;4.00;;
43662;SDS011;74813;56.104;40.358;2023-12-28T04:53:43;9.20;;;3.72;;
43662;SDS011;74813;56.104;40.358;2023-12-28T04:56:19;8.50;;;3.38;;
43662;SDS011;74813;56.104;40.358;2023-12-28T04:58:51;9.95;;;4.13;;
43662;SDS011;74813;56.104;40.358;2023-12-28T05:01:23;9.52;;;4.40;;
43662;SDS011;74813;56.104;40.358;2023-12-28T05:03:56;8.10;;;3.22;;
43662;SDS011;74813;56.104;40.358;2023-12-28T05:06:28;9.90;;;4.00;;
43662;SDS011;74813;56.104;40.358;2023-12-28T05:09:00;9.45;;;3.70;;
43662;SDS011;74813;56.104;40.358;2023-12-28T05:11:33;9.65;;;4.07;;
43662;SDS011;74813;56.104;40.358;2023-12-28T05:14:05;9.80;;;3.72;;
43662;SDS011;74813;56.104;40.358;2023-12-28T05:16:37;8.70;;;3.83;;
43662;SDS011;74813;56.104;40.358;2023-12-28T05:19:10;10.63;;;5.05;;
43662;SDS011;74813;56.104;40.358;2023-12-28T05:21:42;10.93;;;4.60;;
43662;SDS011;74813;56.104;40.358;2023-12-28T05:24:14;11.10;;;4.45;;
43662;SDS011;74813;56.104;40.358;2023-12-28T05:26:46;11.38;;;4.13;;
43662;SDS011;74813;56.104;40.358;2023-12-28T05:29:19;10.77;;;4.13;;
43662;SDS011;74813;56.104;40.358;2023-12-28T05:31:51;10.65;;;4.28;;
43662;SDS011;74813;56.104;40.358;2023-12-28T05:34:23;8.48;;;3.78;;
43662;SDS011;74813;56.104;40.358;2023-12-28T05:36:55;10.70;;;4.53;;
43662;SDS011;74813;56.104;40.358;2023-12-28T05:39:28;11.40;;;4.47;;
43662;SDS011;74813;56.104;40.358;2023-12-28T05:42:00;10.68;;;4.10;;
43662;SDS011;74813;56.104;40.358;2023-12-28T05:44:32;10.32;;;4.15;;
43662;SDS011;74813;56.104;40.358;2023-12-28T05:47:05;10.27;;;4.40;;
43662;SDS011;74813;56.104;40.358;2023-12-28T05:49:37;11.02;;;4.90;;
43662;SDS011;74813;56.104;40.358;2023-12-28T05:52:09;10.40;;;4.25;;
43662;SDS011;74813;56.104;40.358;2023-12-28T05:54:41;10.85;;;4.45;;
43662;SDS011;74813;56.104;40.358;2023-12-28T05:57:14;11.48;;;5.20;;
43662;SDS011;74813;56.104;40.358;2023-12-28T05:59:46;13.20;;;5.18;;
43662;SDS011;74813;56.104;40.358;2023-12-28T06:02:18;11.43;;;5.18;;
43662;SDS011;74813;56.104;40.358;2023-12-28T06:04:51;11.68;;;4.68;;
43662;SDS011;74813;56.104;40.358;2023-12-28T06:07:23;10.65;;;4.43;;
43662;SDS011;74813;56.104;40.358;2023-12-28T06:09:55;10.95;;;4.18;;
43662;SDS011;74813;56.104;40.358;2023-12-28T06:12:27;10.70;;;4.15;;
43662;SDS011;74813;56.104;40.358;2023-12-28T06:15:00;12.85;;;4.93;;
43662;SDS011;74813;56.104;40.358;2023-12-28T06:17:32;11.80;;;4.70;;
43662;SDS011;74813;56.104;40.358;2023-12-28T06:20:04;14.25;;;6.45;;
43662;SDS011;74813;56.104;40.358;2023-12-28T06:22:37;13.02;;;5.57;;
43662;SDS011;74813;56.104;40.358;2023-12-28T06:25:11;12.13;;;4.88;;
43662;SDS011;74813;56.104;40.358;2023-12-28T06:27:43;14.27;;;5.78;;
43662;SDS011;74813;56.104;40.358;2023-12-28T06:30:15;12.75;;;5.78;;
43662;SDS011;74813;56.104;40.358;2023-12-28T06:32:48;12.55;;;5.25;;
43662;SDS011;74813;56.104;40.358;2023-12-28T06:35:20;12.93;;;4.95;;
43662;SDS011;74813;56.104;40.358;2023-12-28T06:37:52;12.07;;;4.93;;
43662;SDS011;74813;56.104;40.358;2023-12-28T06:40:25;13.82;;;4.55;;
43662;SDS011;74813;56.104;40.358;2023-12-28T06:42:57;12.73;;;4.95;;
43662;SDS011;74813;56.104;40.358;2023-12-28T06:45:29;12.52;;;5.40;;
43662;SDS011;74813;56.104;40.358;2023-12-28T06:48:01;18.08;;;7.43;;
43662;SDS011;74813;56.104;40.358;2023-12-28T06:50:34;22.15;;;10.90;;
43662;SDS011;74813;56.104;40.358;2023-12-28T06:53:06;28.85;;;14.88;;
43662;SDS011;74813;56.104;40.358;2023-12-28T06:55:38;24.67;;;15.07;;
43662;SDS011;74813;56.104;40.358;2023-12-28T06:58:11;36.65;;;21.08;;
43662;SDS011;74813;56.104;40.358;2023-12-28T07:00:43;34.88;;;18.25;;
43662;SDS011;74813;56.104;40.358;2023-12-28T07:03:15;33.67;;;19.35;;
43662;SDS011;74813;56.104;40.358;2023-12-28T07:05:48;30.80;;;14.82;;
43662;SDS011;74813;56.104;40.358;2023-12-28T07:08:20;25.70;;;11.02;;
43662;SDS011;74813;56.104;40.358;2023-12-28T07:10:52;25.02;;;11.40;;
43662;SDS011;74813;56.104;40.358;2023-12-28T07:13:25;19.15;;;9.38;;
43662;SDS011;74813;56.104;40.358;2023-12-28T07:15:57;20.63;;;9.15;;
43662;SDS011;74813;56.104;40.358;2023-12-28T07:18:30;18.08;;;8.70;;
43662;SDS011;74813;56.104;40.358;2023-12-28T07:21:02;22.17;;;9.57;;
43662;SDS011;74813;56.104;40.358;2023-12-28T07:23:34;19.70;;;8.15;;
43662;SDS011;74813;56.104;40.358;2023-12-28T07:26:07;20.90;;;10.13;;
43662;SDS011;74813;56.104;40.358;2023-12-28T07:28:39;17.50;;;7.88;;
43662;SDS011;74813;56.104;40.358;2023-12-28T07:31:11;19.55;;;8.57;;
43662;SDS011;74813;56.104;40.358;2023-12-28T07:33:54;20.67;;;9.40;;
43662;SDS011;74813;56.104;40.358;2023-12-28T07:36:27;18.70;;;8.73;;
43662;SDS011;74813;56.104;40.358;2023-12-28T07:38:59;22.48;;;9.98;;
43662;SDS011;74813;56.104;40.358;2023-12-28T07:41:31;22.48;;;11.70;;
43662;SDS011;74813;56.104;40.358;2023-12-28T07:44:03;22.20;;;10.52;;
43662;SDS011;74813;56.104;40.358;2023-12-28T07:46:36;29.25;;;12.82;;
43662;SDS011;74813;56.104;40.358;2023-12-28T07:49:08;27.20;;;12.77;;
43662;SDS011;74813;56.104;40.358;2023-12-28T07:51:40;26.00;;;12.90;;
43662;SDS011;74813;56.104;40.358;2023-12-28T07:54:13;29.98;;;13.05;;
43662;SDS011;74813;56.104;40.358;2023-12-28T07:56:45;27.98;;;12.85;;
43662;SDS011;74813;56.104;40.358;2023-12-28T07:59:17;27.15;;;12.00;;
43662;SDS011;74813;56.104;40.358;2023-12-28T08:01:49;28.77;;;12.43;;
43662;SDS011;74813;56.104;40.358;2023-12-28T08:04:22;27.45;;;13.70;;
43662;SDS011;74813;56.104;40.358;2023-12-28T08:06:55;28.10;;;13.85;;
43662;SDS011;74813;56.104;40.358;2023-12-28T08:09:27;30.98;;;11.68;;
43662;SDS011;74813;56.104;40.358;2023-12-28T08:11:59;25.35;;;10.35;;
43662;SDS011;74813;56.104;40.358;2023-12-28T08:14:31;23.15;;;11.25;;
43662;SDS011;74813;56.104;40.358;2023-12-28T08:17:04;26.92;;;12.35;;
43662;SDS011;74813;56.104;40.358;2023-12-28T08:19:36;28.02;;;12.55;;
43662;SDS011;74813;56.104;40.358;2023-12-28T08:22:08;22.70;;;9.98;;
43662;SDS011;74813;56.104;40.358;2023-12-28T08:24:41;28.10;;;11.48;;
43662;SDS011;74813;56.104;40.358;2023-12-28T08:27:13;24.90;;;10.90;;
43662;SDS011;74813;56.104;40.358;2023-12-28T08:29:45;25.38;;;11.38;;
43662;SDS011;74813;56.104;40.358;2023-12-28T08:32:17;23.98;;;10.50;;
43662;SDS011;74813;56.104;40.358;2023-12-28T08:34:50;25.20;;;10.23;;
43662;SDS011;74813;56.104;40.358;2023-12-28T08:37:22;21.42;;;9.50;;
43662;SDS011;74813;56.104;40.358;2023-12-28T08:39:54;23.52;;;10.95;;
43662;SDS011;74813;56.104;40.358;2023-12-28T08:42:27;20.55;;;8.65;;
43662;SDS011;74813;56.104;40.358;2023-12-28T08:44:59;19.88;;;8.60;;
43662;SDS011;74813;56.104;40.358;2023-12-28T08:47:31;21.38;;;8.30;;
43662;SDS011;74813;56.104;40.358;2023-12-28T08:50:04;22.58;;;9.25;;
43662;SDS011;74813;56.104;40.358;2023-12-28T08:52:36;22.65;;;9.63;;
43662;SDS011;74813;56.104;40.358;2023-12-28T08:55:08;19.50;;;8.63;;
43662;SDS011;74813;56.104;40.358;2023-12-28T08:57:41;18.40;;;8.45;;
43662;SDS011;74813;56.104;40.358;2023-12-28T09:00:13;18.38;;;7.75;;
43662;SDS011;74813;56.104;40.358;2023-12-28T09:02:46;19.67;;;8.43;;
43662;SDS011;74813;56.104;40.358;2023-12-28T09:05:18;17.42;;;7.35;;
43662;SDS011;74813;56.104;40.358;2023-12-28T09:07:50;18.00;;;7.80;;
43662;SDS011;74813;56.104;40.358;2023-12-28T09:10:23;19.85;;;8.07;;
43662;SDS011;74813;56.104;40.358;2023-12-28T09:12:55;18.77;;;7.35;;
43662;SDS011;74813;56.104;40.358;2023-12-28T09:15:27;18.30;;;7.45;;
43662;SDS011;74813;56.104;40.358;2023-12-28T09:17:59;17.40;;;7.38;;
43662;SDS011;74813;56.104;40.358;2023-12-28T09:20:32;20.58;;;8.10;;
43662;SDS011;74813;56.104;40.358;2023-12-28T09:23:04;19.13;;;7.80;;
43662;SDS011;74813;56.104;40.358;2023-12-28T09:25:36;20.48;;;7.90;;
43662;SDS011;74813;56.104;40.358;2023-12-28T09:28:09;20.02;;;8.55;;
43662;SDS011;74813;56.104;40.358;2023-12-28T09:30:41;21.55;;;9.68;;
43662;SDS011;74813;56.104;40.358;2023-12-28T09:33:13;21.10;;;9.07;;
43662;SDS011;74813;56.104;40.358;2023-12-28T09:35:46;21.45;;;8.43;;
43662;SDS011;74813;56.104;40.358;2023-12-28T09:38:19;22.02;;;7.82;;
43662;SDS011;74813;56.104;40.358;2023-12-28T09:40:52;22.38;;;8.68;;
43662;SDS011;74813;56.104;40.358;2023-12-28T09:43:26;20.10;;;8.43;;
43662;SDS011;74813;56.104;40.358;2023-12-28T09:46:07;24.27;;;8.88;;
43662;SDS011;74813;56.104;40.358;2023-12-28T09:48:39;22.65;;;9.68;;
43662;SDS011;74813;56.104;40.358;2023-12-28T09:51:12;23.48;;;9.95;;
43662;SDS011;74813;56.104;40.358;2023-12-28T09:53:44;22.20;;;9.57;;
43662;SDS011;74813;56.104;40.358;2023-12-28T09:56:17;20.48;;;8.95;;
43662;SDS011;74813;56.104;40.358;2023-12-28T09:58:50;17.23;;;7.40;;
43662;SDS011;74813;56.104;40.358;2023-12-28T10:01:23;19.60;;;9.18;;
43662;SDS011;74813;56.104;40.358;2023-12-28T10:03:55;22.90;;;9.60;;
43662;SDS011;74813;56.104;40.358;2023-12-28T10:06:28;15.57;;;6.85;;
43662;SDS011;74813;56.104;40.358;2023-12-28T10:09:00;16.60;;;6.38;;
43662;SDS011;74813;56.104;40.358;2023-12-28T10:11:32;18.92;;;6.72;;
43662;SDS011;74813;56.104;40.358;2023-12-28T10:14:05;19.25;;;7.30;;
43662;SDS011;74813;56.104;40.358;2023-12-28T10:16:39;15.93;;;6.70;;
43662;SDS011;74813;56.104;40.358;2023-12-28T10:19:12;15.38;;;7.05;;
43662;SDS011;74813;56.104;40.358;2023-12-28T10:21:45;17.08;;;7.40;;
43662;SDS011;74813;56.104;40.358;2023-12-28T10:24:17;21.25;;;7.40;;
43662;SDS011;74813;56.104;40.358;2023-12-28T10:26:50;16.83;;;6.65;;
43662;SDS011;74813;56.104;40.358;2023-12-28T10:29:24;17.55;;;7.00;;
43662;SDS011;74813;56.104;40.358;2023-12-28T10:31:57;18.63;;;8.07;;
43662;SDS011;74813;56.104;40.358;2023-12-28T10:34:29;16.73;;;6.93;;
43662;SDS011;74813;56.104;40.358;2023-12-28T10:37:02;18.27;;;7.18;;
43662;SDS011;74813;56.104;40.358;2023-12-28T10:39:35;14.95;;;5.82;;
43662;SDS011;74813;56.104;40.358;2023-12-28T10:42:09;15.20;;;5.97;;
43662;SDS011;74813;56.104;40.358;2023-12-28T10:44:45;14.40;;;5.07;;
43662;SDS011;74813;56.104;40.358;2023-12-28T10:47:23;17.98;;;6.28;;
43662;SDS011;74813;56.104;40.358;2023-12-28T10:50:00;12.15;;;4.25;;
43662;SDS011;74813;56.104;40.358;2023-12-28T10:52:35;18.10;;;6.55;;
43662;SDS011;74813;56.104;40.358;2023-12-28T10:58:10;12.65;;;5.00;;
43662;SDS011;74813;56.104;40.358;2023-12-28T11:00:59;14.10;;;5.35;;
43662;SDS011;74813;56.104;40.358;2023-12-28T11:03:37;14.82;;;5.40;;
43662;SDS011;74813;56.104;40.358;2023-12-28T11:06:12;11.32;;;5.22;;
43662;SDS011;74813;56.104;40.358;2023-12-28T11:08:48;13.25;;;7.07;;
43662;SDS011;74813;56.104;40.358;2023-12-28T11:11:22;12.73;;;6.18;;
43662;SDS011;74813;56.104;40.358;2023-12-28T11:13:55;14.40;;;6.35;;
43662;SDS011;74813;56.104;40.358;2023-12-28T11:16:31;12.18;;;5.57;;
43662;SDS011;74813;56.104;40.358;2023-12-28T11:19:04;12.68;;;5.00;;
43662;SDS011;74813;56.104;40.358;2023-12-28T11:21:38;12.40;;;5.63;;
43662;SDS011;74813;56.104;40.358;2023-12-28T11:24:11;10.88;;;4.13;;
43662;SDS011;74813;56.104;40.358;2023-12-28T11:26:44;10.50;;;4.40;;
43662;SDS011;74813;56.104;40.358;2023-12-28T11:29:24;11.38;;;4.47;;
43662;SDS011;74813;56.104;40.358;2023-12-28T11:31:56;11.57;;;4.57;;
43662;SDS011;74813;56.104;40.358;2023-12-28T11:34:31;12.55;;;5.20;;
43662;SDS011;74813;56.104;40.358;2023-12-28T11:37:04;12.27;;;5.03;;
43662;SDS011;74813;56.104;40.358;2023-12-28T11:39:41;7.55;;;2.75;;
43662;SDS011;74813;56.104;40.358;2023-12-28T11:42:13;10.05;;;4.18;;
43662;SDS011;74813;56.104;40.358;2023-12-28T11:44:55;11.63;;;4.43;;
43662;SDS011;74813;56.104;40.358;2023-12-28T11:47:27;8.75;;;3.38;;
43662;SDS011;74813;56.104;40.358;2023-12-28T11:50:06;8.63;;;3.47;;
43662;SDS011;74813;56.104;40.358;2023-12-28T11:52:39;9.85;;;3.53;;
43662;SDS011;74813;56.104;40.358;2023-12-28T11:55:11;9.88;;;3.78;;
43662;SDS011;74813;56.104;40.358;2023-12-28T11:57:43;8.95;;;3.38;;
43662;SDS011;74813;56.104;40.358;2023-12-28T12:00:16;8.85;;;3.72;;
43662;SDS011;74813;56.104;40.358;2023-12-28T12:02:48;9.30;;;3.58;;
43662;SDS011;74813;56.104;40.358;2023-12-28T12:05:21;8.88;;;3.42;;
43662;SDS011;74813;56.104;40.358;2023-12-28T12:07:54;8.57;;;3.03;;
43662;SDS011;74813;56.104;40.358;2023-12-28T12:10:26;9.65;;;3.72;;
43662;SDS011;74813;56.104;40.358;2023-12-28T12:12:58;8.68;;;3.33;;
43662;SDS011;74813;56.104;40.358;2023-12-28T12:15:31;7.28;;;3.33;;
43662;SDS011;74813;56.104;40.358;2023-12-28T12:18:04;10.15;;;4.43;;
43662;SDS011;74813;56.104;40.358;2023-12-28T12:20:36;10.30;;;3.35;;
43662;SDS011;74813;56.104;40.358;2023-12-28T12:23:09;7.38;;;2.72;;
43662;SDS011;74813;56.104;40.358;2023-12-28T12:25:41;8.90;;;3.40;;
43662;SDS011;74813;56.104;40.358;2023-12-28T12:28:14;7.65;;;3.08;;
43662;SDS011;74813;56.104;40.358;2023-12-28T12:31:04;7.55;;;2.40;;
43662;SDS011;74813;56.104;40.358;2023-12-28T12:33:36;6.53;;;2.28;;
43662;SDS011;74813;56.104;40.358;2023-12-28T12:36:09;6.60;;;2.67;;
43662;SDS011;74813;56.104;40.358;2023-12-28T12:38:41;6.72;;;2.38;;
43662;SDS011;74813;56.104;40.358;2023-12-28T12:41:14;7.22;;;3.03;;
43662;SDS011;74813;56.104;40.358;2023-12-28T12:43:46;6.57;;;2.05;;
43662;SDS011;74813;56.104;40.358;2023-12-28T12:46:18;6.35;;;2.15;;
43662;SDS011;74813;56.104;40.358;2023-12-28T12:48:55;6.85;;;2.53;;
43662;SDS011;74813;56.104;40.358;2023-12-28T12:51:30;7.00;;;2.42;;
43662;SDS011;74813;56.104;40.358;2023-12-28T12:54:03;5.70;;;2.13;;
43662;SDS011;74813;56.104;40.358;2023-12-28T12:56:35;6.20;;;1.98;;
43662;SDS011;74813;56.104;40.358;2023-12-28T12:59:07;7.03;;;2.72;;
43662;SDS011;74813;56.104;40.358;2023-12-28T13:01:40;6.88;;;2.53;;
43662;SDS011;74813;56.104;40.358;2023-12-28T13:04:12;6.47;;;2.35;;
43662;SDS011;74813;56.104;40.358;2023-12-28T13:06:44;7.53;;;2.20;;
43662;SDS011;74813;56.104;40.358;2023-12-28T13:09:17;7.70;;;2.50;;
43662;SDS011;74813;56.104;40.358;2023-12-28T13:11:49;8.10;;;2.17;;
43662;SDS011;74813;56.104;40.358;2023-12-28T13:14:22;6.57;;;2.70;;
43662;SDS011;74813;56.104;40.358;2023-12-28T13:16:54;7.47;;;3.20;;
43662;SDS011;74813;56.104;40.358;2023-12-28T13:19:27;8.52;;;3.20;;
43662;SDS011;74813;56.104;40.358;2023-12-28T13:21:59;7.47;;;2.45;;
43662;SDS011;74813;56.104;40.358;2023-12-28T13:24:31;7.05;;;2.97;;
43662;SDS011;74813;56.104;40.358;2023-12-28T13:27:03;7.10;;;2.78;;
43662;SDS011;74813;56.104;40.358;2023-12-28T13:29:36;8.93;;;4.38;;
43662;SDS011;74813;56.104;40.358;2023-12-28T13:32:08;8.68;;;3.13;;
43662;SDS011;74813;56.104;40.358;2023-12-28T13:34:41;8.23;;;3.13;;
43662;SDS011;74813;56.104;40.358;2023-12-28T13:37:13;8.20;;;3.45;;
43662;SDS011;74813;56.104;40.358;2023-12-28T13:39:45;8.27;;;3.63;;
43662;SDS011;74813;56.104;40.358;2023-12-28T13:42:18;7.43;;;3.08;;
43662;SDS011;74813;56.104;40.358;2023-12-28T13:44:50;8.20;;;3.70;;
43662;SDS011;74813;56.104;40.358;2023-12-28T13:47:22;8.63;;;3.63;;
43662;SDS011;74813;56.104;40.358;2023-12-28T13:49:54;9.50;;;3.53;;
43662;SDS011;74813;56.104;40.358;2023-12-28T13:52:27;9.07;;;3.30;;
43662;SDS011;74813;56.104;40.358;2023-12-28T13:54:59;8.43;;;3.40;;
43662;SDS011;74813;56.104;40.358;2023-12-28T13:57:31;6.70;;;2.83;;
43662;SDS011;74813;56.104;40.358;2023-12-28T14:00:04;9.38;;;3.72;;
43662;SDS011;74813;56.104;40.358;2023-12-28T14:02:37;8.50;;;3.42;;
43662;SDS011;74813;56.104;40.358;2023-12-28T14:05:09;10.13;;;3.58;;
43662;SDS011;74813;56.104;40.358;2023-12-28T14:07:42;10.15;;;4.40;;
43662;SDS011;74813;56.104;40.358;2023-12-28T14:10:14;12.63;;;3.67;;
43662;SDS011;74813;56.104;40.358;2023-12-28T14:12:46;9.13;;;3.75;;
43662;SDS011;74813;56.104;40.358;2023-12-28T14:15:18;9.07;;;4.05;;
43662;SDS011;74813;56.104;40.358;2023-12-28T14:17:51;10.23;;;3.50;;
43662;SDS011;74813;56.104;40.358;2023-12-28T14:20:23;9.95;;;3.83;;
43662;SDS011;74813;56.104;40.358;2023-12-28T14:22:55;10.00;;;3.13;;
43662;SDS011;74813;56.104;40.358;2023-12-28T14:25:28;12.18;;;4.38;;
43662;SDS011;74813;56.104;40.358;2023-12-28T14:28:01;12.95;;;4.75;;
43662;SDS011;74813;56.104;40.358;2023-12-28T14:30:33;21.50;;;10.30;;
43662;SDS011;74813;56.104;40.358;2023-12-28T14:33:06;13.98;;;5.13;;
43662;SDS011;74813;56.104;40.358;2023-12-28T14:35:38;10.77;;;4.03;;
43662;SDS011;74813;56.104;40.358;2023-12-28T14:38:11;10.45;;;4.07;;
43662;SDS011;74813;56.104;40.358;2023-12-28T14:40:43;11.63;;;4.10;;
43662;SDS011;74813;56.104;40.358;2023-12-28T14:43:16;12.02;;;4.50;;
43662;SDS011;74813;56.104;40.358;2023-12-28T14:45:48;10.45;;;3.90;;
43662;SDS011;74813;56.104;40.358;2023-12-28T14:48:20;11.20;;;4.05;;
43662;SDS011;74813;56.104;40.358;2023-12-28T14:50:52;11.38;;;4.15;;
43662;SDS011;74813;56.104;40.358;2023-12-28T14:53:25;12.98;;;4.22;;
43662;SDS011;74813;56.104;40.358;2023-12-28T14:55:57;17.38;;;8.95;;
43662;SDS011;74813;56.104;40.358;2023-12-28T14:58:29;11.35;;;5.55;;
43662;SDS011;74813;56.104;40.358;2023-12-28T15:01:02;10.38;;;4.47;;